Time;durP1;ratioP1;P1;durP2;ratioP2;P2;SDS_P1;SDS_P2;PMS_P1;PMS_P2;Temp;Humidity;BMP_temperature;BMP_pressure;BME280_temperature;BME280_humidity;BME280_pressure;Samples;Min_cycle;Max_cycle;Signal;HPM_P1;HPM_P2
2023/10/08 00:01:44;;;;;;;6.70;2.00;;;;;;;12.51;69.28;98575.94;106354;1253;72455;-76
2023/10/08 00:04:12;;;;;;;4.90;1.70;;;;;;;12.42;68.85;98576.27;106339;1254;60573;-77
2023/10/08 00:06:39;;;;;;;4.40;2.00;;;;;;;12.32;68.58;98587.66;106216;1253;60359;-76
2023/10/08 00:09:07;;;;;;;5.80;2.20;;;;;;;12.23;67.44;98584.83;106307;1258;73902;-74
2023/10/08 00:11:36;;;;;;;4.80;2.10;;;;;;;12.14;66.83;98584.81;106039;1261;69192;-74
2023/10/08 00:14:08;;;;;;;5.60;2.10;;;;;;;12.03;65.01;98588.05;106218;1253;72760;-72
2023/10/08 00:16:39;;;;;;;12.60;5.50;;;;;;;11.92;64.69;98588.95;106370;1253;60352;-72
2023/10/08 00:19:15;;;;;;;4.10;2.60;;;;;;;11.82;64.00;98594.70;107435;1253;60345;-73
2023/10/08 00:21:44;;;;;;;8.00;3.30;;;;;;;11.72;63.85;98598.63;107667;1253;73639;-77
2023/10/08 00:24:12;;;;;;;3.60;1.80;;;;;;;11.64;63.74;98602.95;106753;1251;68886;-76
2023/10/08 00:26:42;;;;;;;6.80;4.20;;;;;;;11.55;62.35;98603.34;105909;1253;71291;-76
2023/10/08 00:29:16;;;;;;;8.80;5.50;;;;;;;11.46;61.91;98604.52;105897;1257;60479;-75
2023/10/08 00:31:45;;;;;;;6.80;2.20;;;;;;;11.38;61.06;98612.39;106010;1257;60457;-75
2023/10/08 00:34:13;;;;;;;3.50;1.70;;;;;;;11.29;61.42;98619.44;105790;1252;73911;-72
2023/10/08 00:36:42;;;;;;;6.50;1.90;;;;;;;11.18;62.36;98623.09;105896;1253;70334;-75
2023/10/08 00:39:13;;;;;;;4.00;1.90;;;;;;;11.07;62.37;98625.39;105624;1253;70775;-76
2023/10/08 00:41:43;;;;;;;4.90;1.60;;;;;;;10.96;63.02;98620.64;105874;1256;60531;-76
2023/10/08 00:44:23;;;;;;;4.90;2.20;;;;;;;10.85;63.62;98618.05;105866;1258;60421;-74
2023/10/08 00:46:51;;;;;;;4.80;2.30;;;;;;;10.74;64.22;98626.48;105694;1259;73917;-75
2023/10/08 00:55:08;;;;;;;2.80;1.60;;;;;;;10.33;63.64;98632.98;105760;1258;60469;-74
2023/10/08 00:57:37;;;;;;;2.80;1.60;;;;;;;10.20;64.01;98634.98;105819;1252;60358;-75
2023/10/08 01:00:17;;;;;;;4.60;2.10;;;;;;;10.09;64.26;98639.44;105744;1258;73809;-74
2023/10/08 01:02:46;;;;;;;5.20;2.00;;;;;;;9.95;64.94;98645.56;106172;1253;70158;-74
2023/10/08 01:05:25;;;;;;;2.70;1.50;;;;;;;9.80;66.23;98639.05;105908;1256;71742;-72
2023/10/08 01:07:53;;;;;;;2.40;1.70;;;;;;;9.64;66.71;98631.98;106067;1253;60549;-72
2023/10/08 01:10:21;;;;;;;6.70;1.70;;;;;;;9.51;67.46;98626.62;105937;1253;60426;-73
2023/10/08 01:13:42;;;;;;;3.20;1.30;;;;;;;9.40;67.64;98617.00;105819;1252;73854;-71
2023/10/08 01:15:37;;;;;;;4.10;1.80;;;;;;;9.42;67.97;98612.99;105822;1259;69023;-74
2023/10/08 01:18:08;;;;;;;5.60;2.00;;;;;;;9.41;67.85;98621.66;106033;1253;72700;-72
2023/10/08 01:20:37;;;;;;;3.70;1.50;;;;;;;9.34;67.96;98632.15;106939;1257;60777;-72
2023/10/08 01:23:16;;;;;;;4.00;1.70;;;;;;;9.29;67.78;98625.70;107531;1253;60511;-75
2023/10/08 01:25:51;;;;;;;3.00;1.50;;;;;;;9.24;67.99;98619.41;106567;1253;72620;-73
2023/10/08 01:28:26;;;;;;;3.40;1.70;;;;;;;9.21;68.06;98632.49;106188;1257;69523;-75
2023/10/08 01:30:55;;;;;;;3.50;1.80;;;;;;;9.18;67.44;98629.34;107762;1256;72717;-76
2023/10/08 01:33:26;;;;;;;4.20;1.80;;;;;;;9.16;67.62;98627.75;107083;1255;60509;-76
2023/10/08 01:35:54;;;;;;;2.50;1.60;;;;;;;9.15;67.23;98626.31;106229;1253;60417;-73
2023/10/08 01:38:23;;;;;;;3.90;2.00;;;;;;;9.15;66.85;98633.81;107007;1253;72624;-73
2023/10/08 01:40:51;;;;;;;3.50;2.00;;;;;;;9.14;67.33;98637.30;108318;1253;69014;-74
2023/10/08 01:43:20;;;;;;;2.40;1.50;;;;;;;9.16;67.17;98638.84;108403;1254;71012;-73
2023/10/08 01:45:52;;;;;;;4.60;1.80;;;;;;;9.28;67.14;98633.06;108401;1256;60274;-74
2023/10/08 01:48:27;;;;;;;4.90;2.10;;;;;;;9.32;66.43;98625.31;108421;1253;59464;-74
2023/10/08 01:50:56;;;;;;;2.70;1.50;;;;;;;9.32;66.49;98617.11;108220;1254;72565;-74
2023/10/08 01:53:26;;;;;;;3.20;1.70;;;;;;;9.31;66.51;98617.59;108149;1253;68825;-73
2023/10/08 01:55:55;;;;;;;2.70;1.50;;;;;;;9.31;66.40;98616.48;106423;1260;71424;-71
2023/10/08 01:58:22;;;;;;;3.80;1.70;;;;;;;9.31;66.43;98622.13;105697;1256;60493;-74
2023/10/08 02:00:54;;;;;;;3.30;1.50;;;;;;;9.30;66.25;98619.83;105701;1254;60451;-74
2023/10/08 02:03:22;;;;;;;3.30;1.80;;;;;;;9.27;66.05;98622.61;105725;1261;73871;-74
2023/10/08 02:05:53;;;;;;;3.90;1.80;;;;;;;9.24;66.32;98627.36;105773;1259;68936;-73
2023/10/08 02:08:21;;;;;;;5.70;2.00;;;;;;;9.21;66.47;98624.52;105653;1253;71998;-73
2023/10/08 02:10:48;;;;;;;3.10;1.70;;;;;;;9.19;66.88;98617.60;105641;1256;60412;-73
2023/10/08 02:13:16;;;;;;;4.70;2.10;;;;;;;9.17;67.14;98618.17;105794;1253;60391;-74
2023/10/08 02:15:44;;;;;;;4.60;1.70;;;;;;;9.18;67.59;98611.85;105633;1253;72631;-74
2023/10/08 02:18:12;;;;;;;3.50;1.90;;;;;;;9.28;67.77;98611.86;105654;1260;70412;-71
2023/10/08 02:20:41;;;;;;;3.00;1.70;;;;;;;9.30;68.43;98610.02;105985;1257;71290;-73
2023/10/08 02:23:11;;;;;;;6.40;4.70;;;;;;;9.28;68.42;98615.73;106011;1260;60521;-73
2023/10/08 02:25:40;;;;;;;4.10;2.10;;;;;;;9.26;68.33;98617.41;105882;1260;60295;-74
2023/10/08 02:28:12;;;;;;;5.40;1.70;;;;;;;9.24;68.48;98618.34;105866;1255;73119;-76
2023/10/08 02:30:41;;;;;;;4.60;1.90;;;;;;;9.22;68.48;98622.69;105744;1260;70634;-73
2023/10/08 02:33:15;;;;;;;4.30;2.20;;;;;;;9.20;68.77;98618.30;105634;1253;72475;-72
2023/10/08 02:35:45;;;;;;;4.90;2.30;;;;;;;9.19;69.15;98619.38;105832;1258;60419;-76
2023/10/08 02:38:18;;;;;;;4.80;2.10;;;;;;;9.18;69.25;98627.60;105729;1260;60416;-75
2023/10/08 02:40:48;;;;;;;3.90;1.70;;;;;;;9.29;69.42;98628.02;105621;1253;72629;-74
2023/10/08 02:43:16;;;;;;;2.80;1.50;;;;;;;9.33;69.22;98626.11;105821;1257;68971;-75
2023/10/08 02:45:47;;;;;;;5.70;1.70;;;;;;;9.32;69.45;98633.50;105592;1253;71414;-74
2023/10/08 02:48:15;;;;;;;5.90;2.50;;;;;;;9.30;69.65;98638.02;105730;1253;60471;-74
2023/10/08 02:50:47;;;;;;;5.80;1.80;;;;;;;9.30;69.81;98642.63;105914;1256;60342;-74
2023/10/08 02:53:17;;;;;;;4.70;1.70;;;;;;;9.30;70.10;98650.73;105912;1253;72209;-74
2023/10/08 02:55:46;;;;;;;5.10;1.60;;;;;;;9.30;70.23;98652.36;105628;1253;69209;-76
2023/10/08 02:58:15;;;;;;;4.00;1.90;;;;;;;9.29;69.93;98650.41;105896;1253;71366;-74
2023/10/08 03:00:43;;;;;;;6.40;1.60;;;;;;;9.30;69.86;98651.96;105627;1253;60509;-74
2023/10/08 03:03:19;;;;;;;4.40;2.30;;;;;;;9.31;69.38;98652.50;105770;1253;60467;-74
2023/10/08 03:05:49;;;;;;;3.80;1.90;;;;;;;9.43;68.98;98645.95;105529;1260;73859;-74
2023/10/08 03:08:20;;;;;;;3.90;1.50;;;;;;;9.51;68.13;98647.98;105986;1256;69057;-74
2023/10/08 03:10:55;;;;;;;5.20;1.70;;;;;;;9.51;67.72;98655.09;105804;1253;71403;-74
2023/10/08 03:13:23;;;;;;;3.10;1.30;;;;;;;9.50;67.34;98660.83;105823;1253;60627;-76
2023/10/08 03:18:37;;;;;;;4.30;1.80;;;;;;;9.51;65.63;98664.19;105932;1253;73889;-76
2023/10/08 03:21:19;;;;;;;4.70;1.90;;;;;;;9.51;64.68;98665.81;107743;1253;68044;-75
2023/10/08 03:23:51;;;;;;;3.70;1.50;;;;;;;9.50;64.04;98664.66;107588;1253;71500;-78
2023/10/08 03:29:04;;;;;;;3.60;1.30;;;;;;;9.47;61.91;98662.56;105834;1258;60588;-74
2023/10/08 03:34:18;;;;;;;4.00;1.70;;;;;;;9.38;60.75;98663.72;105869;1258;68822;-75
2023/10/08 03:36:49;;;;;;;3.40;1.50;;;;;;;9.33;60.80;98667.45;105997;1253;72709;-75
2023/10/08 03:39:18;;;;;;;4.20;1.60;;;;;;;9.29;60.31;98664.09;105910;1253;60439;-76
2023/10/08 03:42:05;;;;;;;4.00;1.20;;;;;;;9.24;60.38;98667.86;106319;1258;60337;-75
2023/10/08 03:44:37;;;;;;;3.80;1.70;;;;;;;9.19;60.38;98665.78;106428;1253;72681;-77
2023/10/08 03:47:10;;;;;;;7.20;1.30;;;;;;;9.15;59.48;98667.73;105785;1254;69220;-75
2023/10/08 03:49:45;;;;;;;3.20;1.10;;;;;;;9.09;59.19;98663.98;106055;1253;72865;-76
2023/10/08 03:52:13;;;;;;;5.00;1.50;;;;;;;9.03;58.75;98667.00;106832;1253;60421;-78
2023/10/08 03:54:48;;;;;;;3.10;1.40;;;;;;;8.98;58.94;98663.73;108154;1253;60473;-77
2023/10/08 03:57:25;;;;;;;3.90;1.40;;;;;;;8.96;58.84;98670.90;107950;1256;72602;-77
2023/10/08 03:59:58;;;;;;;6.50;1.40;;;;;;;8.93;58.74;98681.14;105854;1258;69975;-76
2023/10/08 04:02:46;;;;;;;2.60;1.10;;;;;;;8.90;59.13;98681.96;105929;1256;72677;-75
2023/10/08 04:05:21;;;;;;;3.70;1.20;;;;;;;8.87;59.26;98677.92;106064;1254;59990;-77
2023/10/08 04:13:08;;;;;;;4.60;1.10;;;;;;;8.77;60.05;98682.43;106021;1258;68859;-76
2023/10/08 04:15:40;;;;;;;2.40;1.00;;;;;;;8.75;59.78;98685.17;105699;1255;70449;-76
2023/10/08 04:18:09;;;;;;;4.10;1.60;;;;;;;8.72;60.17;98696.33;105730;1253;61187;-76
2023/10/08 04:20:39;;;;;;;4.10;1.10;;;;;;;8.69;60.19;98699.99;106224;1253;60467;-77
2023/10/08 04:23:18;;;;;;;5.20;1.40;;;;;;;8.68;60.42;98702.06;105937;1258;72585;-74
2023/10/08 04:25:46;;;;;;;3.70;1.10;;;;;;;8.67;60.39;98704.48;106846;1253;69032;-76
2023/10/08 04:28:17;;;;;;;2.00;1.00;;;;;;;8.67;60.85;98713.11;106462;1257;71076;-75
2023/10/08 04:30:45;;;;;;;3.10;1.50;;;;;;;8.67;60.71;98717.19;105992;1256;60472;-74
2023/10/08 04:33:12;;;;;;;3.80;1.40;;;;;;;8.67;60.80;98719.34;105870;1253;60533;-77
2023/10/08 04:35:48;;;;;;;3.20;1.40;;;;;;;8.65;61.18;98728.64;105704;1253;73832;-74
2023/10/08 04:38:19;;;;;;;6.00;1.80;;;;;;;8.66;60.84;98733.02;105761;1258;69635;-73
2023/10/08 04:40:52;;;;;;;5.60;1.60;;;;;;;8.66;61.09;98737.98;106016;1254;72554;-74
2023/10/08 04:43:27;;;;;;;;;;;;;;;8.67;61.17;98733.08;105923;1253;60547;-75
2023/10/08 04:45:58;;;;;;;6.30;1.60;;;;;;;8.67;61.31;98732.02;105929;1253;61693;-73
2023/10/08 04:48:29;;;;;;;2.80;1.40;;;;;;;8.65;61.68;98729.19;105886;1253;72797;-75
2023/10/08 04:51:01;;;;;;;3.80;1.50;;;;;;;8.65;61.76;98732.54;105812;1253;70504;-76
2023/10/08 04:53:36;;;;;;;3.10;1.50;;;;;;;8.65;61.65;98741.77;106008;1253;71729;-75
2023/10/08 04:56:05;;;;;;;4.20;1.80;;;;;;;8.65;61.86;98750.38;105966;1253;60442;-74
2023/10/08 04:58:36;;;;;;;4.40;1.50;;;;;;;8.66;61.84;98746.06;105874;1254;60438;-75
2023/10/08 05:17:22;;;;;;;2.30;1.30;;;;;;;8.68;61.15;98745.45;106024;1253;68912;-77
2023/10/08 05:54:36;;;;;;;2.20;1.10;;;;;;;8.81;57.79;98803.00;106286;1254;72890;-78
2023/10/08 06:13:29;;;;;;;4.20;1.20;;;;;;;8.83;57.70;98809.00;106028;1253;71882;-77
2023/10/08 06:18:28;;;;;;;2.30;1.30;;;;;;;8.87;57.70;98808.45;106169;1253;60378;-78
2023/10/08 06:21:08;;;;;;;4.50;1.50;;;;;;;8.86;57.43;98821.79;106210;1254;74094;-79
2023/10/08 06:23:37;;;;;;;3.60;1.40;;;;;;;8.84;57.49;98822.36;107375;1253;69638;-79
2023/10/08 06:26:14;;;;;;;3.90;1.40;;;;;;;8.81;57.63;98826.06;108622;1253;71380;-78
2023/10/08 06:28:43;;;;;;;2.10;1.00;;;;;;;8.79;58.00;98830.33;108097;1253;60476;-79
2023/10/08 06:31:12;;;;;;;2.30;1.30;;;;;;;8.78;58.17;98831.33;106462;1259;60335;-79
2023/10/08 06:33:40;;;;;;;2.90;1.30;;;;;;;8.77;58.06;98840.50;106120;1253;72464;-76
2023/10/08 06:38:41;;;;;;;5.60;1.40;;;;;;;8.73;58.57;98835.48;105994;1254;71404;-77
2023/10/08 06:44:13;;;;;;;1.70;1.10;;;;;;;8.70;57.53;98844.86;105800;1253;60329;-76
2023/10/08 06:46:42;;;;;;;2.10;1.30;;;;;;;8.66;57.35;98853.69;105766;1257;72501;-77
2023/10/08 06:49:13;;;;;;;4.60;1.40;;;;;;;8.64;57.65;98852.41;105909;1259;69108;-76
2023/10/08 06:51:45;;;;;;;6.50;1.30;;;;;;;8.61;58.01;98864.71;105745;1258;71367;-76
2023/10/08 06:54:17;;;;;;;2.70;1.10;;;;;;;8.62;57.91;98862.83;106052;1256;60414;-76
2023/10/08 06:56:51;;;;;;;4.50;1.10;;;;;;;8.62;58.30;98866.70;105960;1258;60394;-76
2023/10/08 06:59:23;;;;;;;4.80;1.60;;;;;;;8.65;58.30;98864.99;105682;1258;72584;-77
2023/10/08 07:01:51;;;;;;;2.00;1.40;;;;;;;8.67;58.81;98863.89;105728;1253;70257;-76
2023/10/08 07:04:21;;;;;;;2.80;1.40;;;;;;;8.70;58.64;98871.84;105818;1258;71392;-76
2023/10/08 07:06:51;;;;;;;2.20;1.10;;;;;;;8.73;58.40;98874.70;105816;1253;61153;-76
2023/10/08 07:11:56;;;;;;;4.10;1.20;;;;;;;8.77;58.59;98874.56;105943;1257;73885;-75
2023/10/08 07:14:26;;;;;;;4.30;1.70;;;;;;;8.78;58.59;98875.52;105763;1253;70272;-75
2023/10/08 07:16:59;;;;;;;6.80;1.70;;;;;;;8.77;58.36;98879.00;106006;1253;72850;-76
2023/10/08 07:19:37;;;;;;;3.20;1.30;;;;;;;8.77;58.23;98882.44;106015;1258;60609;-76
2023/10/08 07:22:28;;;;;;;2.90;1.20;;;;;;;8.78;58.39;98875.52;106277;1256;60438;-76
2023/10/08 07:24:57;;;;;;;3.10;1.50;;;;;;;8.77;58.11;98875.39;107824;1253;71596;-75
2023/10/08 07:27:31;;;;;;;3.90;1.30;;;;;;;8.74;58.34;98869.22;108130;1257;69219;-76
2023/10/08 07:30:02;;;;;;;1.70;0.90;;;;;;;8.72;58.36;98877.54;108387;1253;72679;-75
2023/10/08 07:32:30;;;;;;;2.70;1.60;;;;;;;8.74;58.50;98882.02;106837;1254;60434;-76
2023/10/08 07:35:12;;;;;;;5.00;3.40;;;;;;;8.74;58.61;98890.54;106002;1254;60778;-76
2023/10/08 07:37:39;;;;;;;5.10;2.40;;;;;;;8.76;58.60;98886.48;106446;1258;72582;-76
2023/10/08 07:40:11;;;;;;;3.10;1.80;;;;;;;8.79;58.82;98882.19;105994;1253;68755;-74
2023/10/08 07:42:39;;;;;;;3.00;1.50;;;;;;;8.83;58.19;98881.76;105876;1254;73370;-75
2023/10/08 07:45:07;;;;;;;6.00;1.60;;;;;;;8.86;58.72;98890.66;105889;1258;60573;-76
2023/10/08 07:47:34;;;;;;;6.20;1.80;;;;;;;8.91;58.42;98893.58;105849;1252;62591;-76
2023/10/08 07:50:11;;;;;;;2.30;1.30;;;;;;;8.94;58.50;98895.02;105940;1257;73792;-76
2023/10/08 07:52:44;;;;;;;4.00;1.40;;;;;;;8.97;58.47;98892.21;105519;1254;497303;-76
2023/10/08 07:56:51;;;;;;;3.60;1.40;;;;;;;9.04;57.86;98892.78;102660;1294;599644;-76
2023/10/08 07:59:22;;;;;;;2.40;1.10;;;;;;;9.05;58.16;98890.32;104796;1269;60070;-75
2023/10/08 08:01:52;;;;;;;2.20;1.10;;;;;;;9.12;57.77;98893.41;104718;1267;59980;-76
2023/10/08 08:04:22;;;;;;;2.60;1.30;;;;;;;9.21;57.76;98896.10;104967;1269;70811;-75
2023/10/08 08:06:50;;;;;;;2.50;1.20;;;;;;;9.34;58.11;98891.81;104877;1268;70218;-77
2023/10/08 08:09:23;;;;;;;5.00;1.10;;;;;;;9.48;57.79;98886.23;104853;1272;73966;-75
2023/10/08 08:11:50;;;;;;;2.90;1.20;;;;;;;9.65;57.98;98888.80;105028;1265;61329;-75
2023/10/08 08:14:24;;;;;;;4.80;1.80;;;;;;;9.78;56.30;98889.15;105099;1265;60093;-75
2023/10/08 08:16:51;;;;;;;2.80;1.60;;;;;;;9.84;55.88;98889.19;105727;1265;72406;-75
2023/10/08 08:19:24;;;;;;;4.40;1.40;;;;;;;9.87;55.96;98888.24;106752;1262;68723;-75
2023/10/08 08:21:54;;;;;;;1.60;1.10;;;;;;;9.91;55.44;98884.66;107475;1262;71087;-76
2023/10/08 08:24:28;;;;;;;3.90;1.50;;;;;;;9.96;55.25;98894.23;107332;1264;61646;-75
2023/10/08 08:27:08;;;;;;;6.10;1.60;;;;;;;10.06;55.43;98887.81;106140;1254;59712;-75
2023/10/08 08:29:48;;;;;;;4.40;1.60;;;;;;;10.16;55.78;98896.52;106084;1256;72285;-75
2023/10/08 08:32:21;;;;;;;3.00;1.10;;;;;;;10.33;55.79;98894.15;106014;1256;70268;-75
2023/10/08 08:34:52;;;;;;;5.50;1.30;;;;;;;10.54;56.05;98886.55;105946;1256;71288;-76
2023/10/08 08:37:25;;;;;;;3.60;1.50;;;;;;;10.75;55.32;98881.20;105812;1256;60604;-76
2023/10/08 08:39:53;;;;;;;;;;;;;;;10.94;54.99;98874.04;105662;1261;59639;-75
2023/10/08 08:42:26;;;;;;;4.80;1.20;;;;;;;11.11;54.67;98879.84;105600;1254;71791;-76
2023/10/08 08:44:54;;;;;;;2.20;1.30;;;;;;;11.29;53.58;98888.42;105882;1254;70503;-77
2023/10/08 08:47:24;;;;;;;2.90;1.20;;;;;;;11.37;52.35;98885.67;106268;1256;71394;-76
2023/10/08 08:49:55;;;;;;;1.70;1.30;;;;;;;11.41;52.36;98886.40;105859;1256;60116;-75
2023/10/08 08:52:22;;;;;;;2.20;1.30;;;;;;;11.56;52.03;98882.56;105945;1260;60019;-76
2023/10/08 08:54:51;;;;;;;2.90;1.20;;;;;;;11.85;51.22;98886.13;106134;1254;71807;-77
2023/10/08 08:57:20;;;;;;;6.20;1.20;;;;;;;12.23;49.72;98883.76;105965;1254;70409;-76
2023/10/08 08:59:55;;;;;;;1.60;1.30;;;;;;;12.59;49.34;98881.31;105834;1260;71622;-76
2023/10/08 09:02:23;;;;;;;2.00;1.30;;;;;;;12.92;47.94;98877.59;105792;1256;60113;-76
2023/10/08 09:04:50;;;;;;;3.80;2.20;;;;;;;13.12;47.13;98874.89;105802;1254;60048;-76
2023/10/08 09:07:23;;;;;;;3.00;1.70;;;;;;;13.37;45.76;98871.06;105743;1256;72755;-77
2023/10/08 09:09:52;;;;;;;1.90;1.30;;;;;;;13.56;45.30;98873.67;105621;1255;69432;-76
2023/10/08 09:12:21;;;;;;;4.30;1.70;;;;;;;13.79;44.04;98879.77;105601;1256;72468;-75
2023/10/08 09:14:48;;;;;;;3.50;1.30;;;;;;;13.88;44.74;98882.08;105723;1254;60225;-75
2023/10/08 09:17:17;;;;;;;2.90;1.40;;;;;;;14.17;44.37;98879.17;105795;1256;60066;-74
2023/10/08 09:19:45;;;;;;;2.70;1.70;;;;;;;14.63;44.17;98874.42;106483;1254;71796;-76
2023/10/08 09:22:15;;;;;;;2.60;1.30;;;;;;;15.23;42.60;98871.05;107213;1260;68722;-76
2023/10/08 09:24:43;;;;;;;2.90;1.70;;;;;;;15.52;40.93;98874.95;106830;1256;70411;-77
2023/10/08 09:27:18;;;;;;;2.90;1.40;;;;;;;15.51;41.18;98876.42;105773;1260;59639;-75
2023/10/08 09:29:46;;;;;;;2.00;1.40;;;;;;;15.64;41.84;98879.64;105702;1258;60249;-76
2023/10/08 09:32:13;;;;;;;2.00;1.20;;;;;;;16.05;40.99;98869.39;105591;1259;72120;-75
2023/10/08 09:34:41;;;;;;;1.90;1.40;;;;;;;16.62;39.74;98877.30;105557;1254;70398;-75
2023/10/08 09:37:09;;;;;;;1.90;1.60;;;;;;;17.20;38.50;98869.00;105634;1256;71453;-76
2023/10/08 09:39:37;;;;;;;5.20;1.60;;;;;;;17.67;38.04;98864.47;105634;1257;60154;-76
2023/10/08 09:42:11;;;;;;;5.20;1.70;;;;;;;18.26;37.16;98863.52;105571;1256;60020;-75
2023/10/08 09:44:39;;;;;;;3.50;1.50;;;;;;;18.74;37.36;98863.82;105660;1254;71896;-76
2023/10/08 09:47:09;;;;;;;2.00;1.50;;;;;;;19.00;37.08;98864.27;105573;1256;69524;-76
2023/10/08 09:49:42;;;;;;;2.60;1.50;;;;;;;19.23;35.75;98872.75;105736;1256;72485;-76
2023/10/08 09:52:12;;;;;;;3.40;1.50;;;;;;;19.07;35.63;98866.80;105732;1255;60367;-76
2023/10/08 09:54:44;;;;;;;2.80;1.70;;;;;;;18.77;35.90;98863.55;105416;1258;59745;-77
2023/10/08 09:57:12;;;;;;;3.00;1.60;;;;;;;18.76;35.45;98873.03;105642;1256;73069;-76
2023/10/08 09:59:40;;;;;;;2.90;1.80;;;;;;;18.63;34.08;98873.56;105482;1254;70209;-75
2023/10/08 10:02:10;;;;;;;4.80;1.60;;;;;;;18.57;33.90;98868.41;105621;1260;71463;-76
2023/10/08 10:04:44;;;;;;;3.00;1.70;;;;;;;18.58;33.52;98869.39;105633;1256;60126;-75
2023/10/08 10:07:14;;;;;;;2.20;1.60;;;;;;;18.70;34.49;98873.11;105672;1254;60364;-77
2023/10/08 10:09:48;;;;;;;1.90;1.30;;;;;;;18.82;33.85;98866.12;105607;1258;73265;-75
2023/10/08 10:12:25;;;;;;;4.00;1.40;;;;;;;18.68;33.50;98873.77;105970;1258;68699;-76
2023/10/08 10:14:57;;;;;;;4.00;1.70;;;;;;;18.35;33.92;98878.92;105973;1256;71535;-76
2023/10/08 10:17:28;;;;;;;2.10;1.50;;;;;;;17.98;33.43;98880.60;106557;1256;60553;-76
2023/10/08 10:20:13;;;;;;;3.90;1.50;;;;;;;17.32;33.70;98881.06;108688;1254;58821;-76
2023/10/08 10:22:46;;;;;;;2.70;1.70;;;;;;;16.70;33.82;98885.28;108070;1255;71825;-78
2023/10/08 10:25:19;;;;;;;1.30;1.20;;;;;;;16.06;34.24;98889.08;105696;1255;69969;-76
2023/10/08 10:27:56;;;;;;;2.20;1.40;;;;;;;15.53;35.39;98891.85;105783;1257;72710;-78
2023/10/08 10:30:23;;;;;;;2.80;1.20;;;;;;;15.21;35.44;98889.92;105732;1255;59802;-77
2023/10/08 10:32:52;;;;;;;4.30;1.50;;;;;;;14.86;34.78;98892.34;105632;1260;60071;-77
2023/10/08 10:35:19;;;;;;;2.60;1.00;;;;;;;14.65;34.50;98890.83;105747;1257;73076;-77
2023/10/08 10:37:55;;;;;;;2.00;1.50;;;;;;;14.72;34.68;98897.28;105584;1256;70156;-76
2023/10/08 10:40:39;;;;;;;4.30;2.00;;;;;;;15.26;34.73;98897.04;105679;1261;71382;-76
2023/10/08 10:43:09;;;;;;;4.50;1.40;;;;;;;16.10;34.71;98890.48;105711;1258;60016;-79
2023/10/08 10:45:42;;;;;;;1.90;1.40;;;;;;;16.95;34.54;98885.40;105720;1261;59659;-78
2023/10/08 10:48:21;;;;;;;2.70;1.70;;;;;;;17.60;33.99;98878.66;105617;1256;73073;-79
2023/10/08 10:53:56;;;;;;;7.00;2.00;;;;;;;18.76;32.21;98866.64;105722;1261;71492;-78
2023/10/08 10:56:30;;;;;;;1.60;1.30;;;;;;;19.59;31.20;98874.36;105430;1261;60153;-75
2023/10/08 10:59:15;;;;;;;3.00;2.00;;;;;;;20.31;29.38;98870.52;105614;1260;60056;-77
2023/10/08 11:01:52;;;;;;;1.90;1.40;;;;;;;21.02;28.56;98874.75;105624;1255;73706;-77
2023/10/08 11:04:28;;;;;;;4.00;1.90;;;;;;;21.48;26.91;98875.59;105617;1256;70080;-78
2023/10/08 11:06:58;;;;;;;4.30;1.60;;;;;;;21.61;27.72;98873.61;106080;1259;71041;-76
2023/10/08 11:09:38;;;;;;;3.90;1.70;;;;;;;21.73;27.55;98869.90;105820;1257;59784;-76
2023/10/08 11:12:13;;;;;;;3.70;1.50;;;;;;;22.10;27.72;98867.59;108028;1253;59245;-75
2023/10/08 11:14:43;;;;;;;1.50;1.30;;;;;;;22.90;27.23;98863.80;108156;1255;71797;-77
2023/10/08 11:17:14;;;;;;;2.20;1.50;;;;;;;23.56;25.63;98869.13;107472;1256;69951;-77
2023/10/08 11:19:48;;;;;;;2.30;1.30;;;;;;;23.55;24.50;98870.70;107822;1254;71268;-77
2023/10/08 11:22:22;;;;;;;2.50;1.50;;;;;;;23.29;24.80;98863.17;108123;1255;58781;-75
2023/10/08 11:24:53;;;;;;;3.20;1.30;;;;;;;23.22;25.12;98867.63;107782;1257;58745;-76
2023/10/08 11:27:37;;;;;;;1.50;1.40;;;;;;;23.10;24.71;98870.55;107387;1256;72021;-76
2023/10/08 11:30:10;;;;;;;;;;;;;;;22.74;25.40;98860.23;106847;1256;69206;-75
2023/10/08 11:32:41;;;;;;;3.80;1.30;;;;;;;22.76;26.01;98857.09;107419;1257;71683;-77
2023/10/08 11:35:16;;;;;;;5.00;1.60;;;;;;;23.32;25.20;98854.39;107001;1256;59728;-77
2023/10/08 11:37:50;;;;;;;1.60;1.50;;;;;;;23.79;24.72;98856.46;106334;1261;59598;-77
2023/10/08 11:40:28;;;;;;;3.20;1.50;;;;;;;23.78;24.43;98857.85;105927;1257;74061;-75
2023/10/08 11:42:59;;;;;;;3.20;1.40;;;;;;;23.99;24.20;98853.02;106048;1255;68726;-78
2023/10/08 11:45:27;;;;;;;3.50;1.70;;;;;;;23.92;24.22;98853.16;106123;1256;72680;-77
2023/10/08 11:48:03;;;;;;;4.40;1.60;;;;;;;24.03;23.93;98855.77;105785;1261;61228;-77
2023/10/08 11:50:31;;;;;;;2.70;1.40;;;;;;;23.96;23.64;98856.39;105776;1256;61057;-78
2023/10/08 11:53:03;;;;;;;4.00;1.40;;;;;;;23.67;24.04;98850.08;105777;1260;72979;-76
2023/10/08 11:55:36;;;;;;;2.00;1.40;;;;;;;23.58;23.47;98855.31;105735;1256;69958;-78
2023/10/08 11:58:10;;;;;;;5.20;1.40;;;;;;;23.19;24.03;98857.21;105695;1256;72478;-79
2023/10/08 12:00:45;;;;;;;2.80;1.80;;;;;;;23.08;24.76;98856.67;105587;1256;60109;-77
2023/10/08 12:03:25;;;;;;;1.40;1.30;;;;;;;23.74;25.07;98848.81;105665;1259;59612;-77
2023/10/08 12:05:59;;;;;;;2.70;1.40;;;;;;;24.58;24.08;98851.14;105757;1256;72285;-77
2023/10/08 12:08:27;;;;;;;2.10;1.40;;;;;;;25.12;23.14;98845.52;105909;1258;68792;-77
2023/10/08 12:10:55;;;;;;;3.60;1.40;;;;;;;25.47;23.18;98843.18;105489;1259;70727;-79
2023/10/08 12:13:24;;;;;;;2.50;1.50;;;;;;;25.88;23.16;98843.33;105694;1259;60442;-77
2023/10/08 12:16:05;;;;;;;2.10;1.60;;;;;;;26.25;22.24;98844.77;106733;1256;60550;-78
2023/10/08 12:18:39;;;;;;;1.80;1.50;;;;;;;26.25;21.81;98838.13;108133;1254;72579;-78
2023/10/08 12:21:12;;;;;;;2.70;1.40;;;;;;;25.96;21.75;98840.89;108388;1256;68717;-78
2023/10/08 12:23:40;;;;;;;1.40;1.30;;;;;;;25.36;22.01;98850.09;106869;1261;71442;-79
2023/10/08 12:26:09;;;;;;;1.80;1.30;;;;;;;24.82;22.42;98846.41;105869;1256;60454;-79
2023/10/08 12:28:36;;;;;;;2.50;1.70;;;;;;;24.81;22.83;98843.21;105857;1256;60873;-78
2023/10/08 12:31:04;;;;;;;5.80;1.60;;;;;;;25.40;22.48;98840.96;105634;1256;73885;-77
2023/10/08 12:33:31;;;;;;;3.50;1.50;;;;;;;26.02;21.74;98838.16;105553;1256;72514;-77
2023/10/08 12:36:10;;;;;;;1.90;1.50;;;;;;;26.17;21.84;98838.84;105674;1260;71330;-78
2023/10/08 12:38:41;;;;;;;1.50;1.30;;;;;;;26.26;21.56;98843.02;105774;1256;61179;-77
2023/10/08 12:41:11;;;;;;;3.10;1.40;;;;;;;26.12;20.81;98853.86;107424;1253;60052;-77
2023/10/08 12:43:52;;;;;;;1.80;1.30;;;;;;;26.01;20.95;98848.63;108473;1253;72642;-76
2023/10/08 12:46:24;;;;;;;2.90;1.30;;;;;;;25.97;21.11;98852.93;108732;1253;69295;-78
2023/10/08 12:48:53;;;;;;;3.10;1.70;;;;;;;26.10;21.20;98852.33;105910;1253;71465;-77
2023/10/08 12:51:23;;;;;;;5.80;1.40;;;;;;;26.16;21.21;98855.73;105946;1259;60474;-78
2023/10/08 12:54:10;;;;;;;2.10;1.40;;;;;;;26.14;21.29;98856.36;105918;1256;60612;-77
2023/10/08 12:56:48;;;;;;;1.80;1.60;;;;;;;26.05;21.15;98857.88;105757;1254;73783;-78
2023/10/08 12:59:23;;;;;;;3.60;1.60;;;;;;;25.31;21.08;98860.71;105634;1261;70363;-78
2023/10/08 13:01:53;;;;;;;1.80;1.50;;;;;;;24.01;21.72;98871.60;105801;1256;70569;-78
2023/10/08 13:04:27;;;;;;;4.70;1.40;;;;;;;22.81;22.47;98869.38;105692;1257;60628;-78
2023/10/08 13:06:57;;;;;;;4.90;1.50;;;;;;;21.44;23.28;98874.02;105791;1256;60508;-76
2023/10/08 13:09:25;;;;;;;2.20;1.30;;;;;;;20.14;24.15;98876.36;105722;1253;73868;-77
2023/10/08 13:11:53;;;;;;;2.70;1.50;;;;;;;19.09;25.00;98876.34;105849;1256;71492;-79
2023/10/08 13:14:22;;;;;;;2.30;1.50;;;;;;;18.24;25.75;98881.65;105921;1256;72614;-80
2023/10/08 13:16:53;;;;;;;2.80;1.40;;;;;;;17.57;26.39;98881.70;106437;1255;60416;-77
2023/10/08 13:19:23;;;;;;;3.00;1.30;;;;;;;16.86;27.23;98883.98;108375;1254;59047;-78
2023/10/08 13:21:52;;;;;;;1.60;1.30;;;;;;;16.29;27.78;98884.14;107071;1256;72609;-77
2023/10/08 13:24:20;;;;;;;1.30;1.10;;;;;;;15.87;28.12;98879.53;106112;1261;69154;-76
2023/10/08 13:26:51;;;;;;;3.80;1.20;;;;;;;15.52;28.96;98879.76;106003;1259;72457;-77
2023/10/08 13:29:19;;;;;;;1.60;1.20;;;;;;;15.18;29.27;98881.64;105835;1263;60301;-76
2023/10/08 13:31:47;;;;;;;4.70;1.30;;;;;;;14.92;29.60;98873.73;105898;1253;60654;-78